Time;durP1;ratioP1;P1;durP2;ratioP2;P2;SDS_P1;SDS_P2;PMS_P1;PMS_P2;Temp;Humidity;BMP_temperature;BMP_pressure;BME280_temperature;BME280_humidity;BME280_pressure;Samples;Min_cycle;Max_cycle;Signal;HPM_P1;HPM_P2
2021/03/13 00:01:09;;;;;;;12.38;1.70;;;;;;;;;;5057782;28;20016;-84
2021/03/13 00:03:35;;;;;;;18.05;1.17;;;;;;;;;;5069470;28;20024;-85
2021/03/13 00:06:03;;;;;;;7.75;1.67;;;;;;;;;;5065063;28;20013;-84
2021/03/13 00:08:28;;;;;;;8.85;1.67;;;;;;;;;;5050650;28;20123;-85
2021/03/13 00:10:54;;;;;;;7.97;1.55;;;;;;;;;;5062550;28;20044;-84
2021/03/13 00:13:19;;;;;;;7.50;1.92;;;;;;;;;;5048381;28;20111;-85
2021/03/13 00:15:47;;;;;;;14.13;2.13;;;;;;;;;;5051614;28;20029;-84
2021/03/13 00:18:13;;;;;;;13.23;2.13;;;;;;;;;;5048577;28;20108;-85
2021/03/13 00:20:39;;;;;;;8.15;0.43;;;;;;;;;;5059387;28;20099;-85
2021/03/13 00:23:05;;;;;;;13.98;1.88;;;;;;;;;;5069885;28;20105;-85
2021/03/13 00:25:31;;;;;;;5.25;0.90;;;;;;;;;;5060768;28;20028;-85
2021/03/13 00:27:56;;;;;;;2.63;1.10;;;;;;;;;;5066894;28;20037;-85
2021/03/13 00:30:26;;;;;;;13.82;2.08;;;;;;;;;;5055607;28;20108;-86
2021/03/13 00:32:52;;;;;;;11.13;1.63;;;;;;;;;;5075153;23;20064;-67
2021/03/13 00:35:18;;;;;;;8.15;1.13;;;;;;;;;;5072368;28;20028;-66
2021/03/13 00:37:43;;;;;;;7.28;1.30;;;;;;;;;;5069506;28;20016;-67
2021/03/13 00:40:10;;;;;;;8.02;1.25;;;;;;;;;;5052415;28;20623;-65
2021/03/13 00:42:35;;;;;;;7.40;1.13;;;;;;;;;;5069068;28;20024;-65
2021/03/13 00:45:01;;;;;;;10.45;1.17;;;;;;;;;;5052462;28;20020;-65
2021/03/13 00:47:26;;;;;;;6.18;1.27;;;;;;;;;;5061250;28;20039;-66
2021/03/13 00:49:51;;;;;;;5.43;1.33;;;;;;;;;;5072206;28;20040;-67
2021/03/13 00:52:16;;;;;;;9.63;1.25;;;;;;;;;;5064803;28;20032;-65
2021/03/13 00:54:42;;;;;;;8.35;1.20;;;;;;;;;;5057953;28;20027;-65
2021/03/13 00:57:07;;;;;;;10.18;1.30;;;;;;;;;;5064812;28;20029;-65
2021/03/13 00:59:32;;;;;;;3.33;1.10;;;;;;;;;;5060875;28;20032;-65
2021/03/13 01:01:57;;;;;;;6.70;1.00;;;;;;;;;;5071936;28;20024;-65
2021/03/13 01:04:24;;;;;;;9.25;1.45;;;;;;;;;;5062149;28;20092;-66
2021/03/13 01:06:49;;;;;;;7.18;1.10;;;;;;;;;;5054303;28;20070;-66
2021/03/13 01:09:14;;;;;;;4.22;0.88;;;;;;;;;;5060505;28;20016;-66
2021/03/13 01:11:39;;;;;;;4.73;0.97;;;;;;;;;;5071832;28;20135;-65
2021/03/13 01:14:04;;;;;;;6.57;1.15;;;;;;;;;;5060360;28;20270;-66
2021/03/13 01:16:29;;;;;;;16.50;1.30;;;;;;;;;;5071883;28;20028;-65
2021/03/13 01:18:55;;;;;;;9.20;1.35;;;;;;;;;;5063914;28;20032;-65
2021/03/13 01:21:20;;;;;;;7.57;1.65;;;;;;;;;;5061602;28;20025;-65
2021/03/13 01:23:45;;;;;;;12.45;1.88;;;;;;;;;;5061944;28;20048;-65
2021/03/13 01:26:10;;;;;;;1.90;0.88;;;;;;;;;;5071454;28;20473;-65
2021/03/13 01:28:35;;;;;;;3.97;0.77;;;;;;;;;;5053491;28;20017;-66
2021/03/13 01:31:01;;;;;;;2.60;0.98;;;;;;;;;;5050656;28;20456;-66
2021/03/13 01:33:26;;;;;;;13.75;2.20;;;;;;;;;;5063190;28;20025;-65
2021/03/13 01:35:51;;;;;;;7.25;2.63;;;;;;;;;;5050082;28;20020;-66
2021/03/13 01:38:16;;;;;;;8.95;1.98;;;;;;;;;;5051315;28;20021;-65
2021/03/13 01:40:41;;;;;;;11.75;2.47;;;;;;;;;;5051810;28;20025;-65
2021/03/13 01:43:07;;;;;;;8.05;1.67;;;;;;;;;;5064004;28;20427;-66
2021/03/13 01:45:32;;;;;;;2.70;1.00;;;;;;;;;;5071317;28;20037;-66
2021/03/13 01:47:57;;;;;;;7.40;2.30;;;;;;;;;;5068091;28;20047;-65
2021/03/13 01:50:23;;;;;;;8.75;2.10;;;;;;;;;;5054221;28;20024;-66
2021/03/13 01:52:48;;;;;;;9.20;3.65;;;;;;;;;;5071036;28;20032;-66
2021/03/13 01:55:14;;;;;;;12.63;1.85;;;;;;;;;;5071055;28;20481;-67
2021/03/13 01:57:39;;;;;;;7.15;1.55;;;;;;;;;;5056505;28;20036;-66
2021/03/13 02:00:07;;;;;;;5.28;1.38;;;;;;;;;;5067977;28;20016;-65
2021/03/13 02:02:32;;;;;;;7.63;2.20;;;;;;;;;;5068848;28;20164;-66
2021/03/13 02:04:57;;;;;;;4.28;1.90;;;;;;;;;;5068106;28;20030;-66
2021/03/13 02:07:25;;;;;;;4.97;2.03;;;;;;;;;;5067127;28;20025;-66
2021/03/13 02:10:26;;;;;;;10.00;2.60;;;;;;;;;;5058479;28;20381;-67
2021/03/13 02:13:06;;;;;;;7.45;1.48;;;;;;;;;;4992135;28;20026;-66
2021/03/13 02:15:41;;;;;;;7.53;1.60;;;;;;;;;;5056439;28;20082;-66
2021/03/13 02:18:14;;;;;;;10.45;3.35;;;;;;;;;;5059533;28;20082;-65
2021/03/13 02:20:46;;;;;;;3.30;1.58;;;;;;;;;;5052315;28;20024;-67
2021/03/13 02:23:11;;;;;;;10.10;1.83;;;;;;;;;;5056811;28;20071;-66
2021/03/13 02:25:55;;;;;;;4.38;2.03;;;;;;;;;;5063205;28;20037;-67
2021/03/13 02:28:39;;;;;;;5.75;1.73;;;;;;;;;;5068473;28;20020;-67
2021/03/13 02:31:05;;;;;;;2.53;1.48;;;;;;;;;;5063551;28;20020;-67
2021/03/13 02:33:36;;;;;;;9.05;2.33;;;;;;;;;;5056817;28;20021;-66
2021/03/13 02:36:04;;;;;;;5.22;2.40;;;;;;;;;;5061857;28;20032;-67
2021/03/13 02:38:31;;;;;;;8.27;1.73;;;;;;;;;;5056480;28;20028;-67
2021/03/13 02:40:58;;;;;;;3.45;1.70;;;;;;;;;;5055263;28;20021;-66
2021/03/13 02:43:25;;;;;;;2.05;1.15;;;;;;;;;;5056271;28;20070;-66
2021/03/13 02:45:55;;;;;;;4.65;2.33;;;;;;;;;;5067904;28;20476;-65
2021/03/13 02:48:20;;;;;;;7.82;1.73;;;;;;;;;;5082845;28;20138;-66
2021/03/13 02:50:46;;;;;;;4.10;1.75;;;;;;;;;;5077291;28;20532;-67
2021/03/13 02:53:12;;;;;;;2.00;0.70;;;;;;;;;;5068262;28;20059;-66
2021/03/13 02:55:38;;;;;;;1.52;0.73;;;;;;;;;;5074518;28;20048;-65
2021/03/13 02:58:05;;;;;;;5.63;1.35;;;;;;;;;;5069375;28;20016;-65
2021/03/13 03:00:32;;;;;;;1.20;0.80;;;;;;;;;;5070121;28;20021;-67
2021/03/13 03:02:58;;;;;;;3.13;1.08;;;;;;;;;;5068874;28;20027;-65
2021/03/13 03:05:24;;;;;;;5.47;0.95;;;;;;;;;;5062739;28;20020;-67
2021/03/13 03:07:51;;;;;;;4.72;1.05;;;;;;;;;;5055983;28;20013;-65
2021/03/13 03:10:18;;;;;;;1.60;0.70;;;;;;;;;;5071024;28;20104;-66
2021/03/13 03:12:43;;;;;;;1.75;0.73;;;;;;;;;;5059934;28;20024;-66
2021/03/13 03:15:09;;;;;;;3.25;0.88;;;;;;;;;;5054721;28;20473;-67
2021/03/13 03:17:37;;;;;;;0.60;0.47;;;;;;;;;;5057223;28;20082;-66
2021/03/13 03:20:05;;;;;;;1.58;0.60;;;;;;;;;;5053780;28;20537;-65
2021/03/13 03:22:30;;;;;;;1.35;0.77;;;;;;;;;;5059804;28;20500;-65
2021/03/13 03:24:55;;;;;;;3.90;0.82;;;;;;;;;;5071800;28;20017;-66
2021/03/13 03:27:20;;;;;;;0.98;0.90;;;;;;;;;;5060304;28;20377;-65
2021/03/13 03:29:46;;;;;;;5.13;0.55;;;;;;;;;;5067324;28;20028;-66
2021/03/13 03:32:11;;;;;;;1.08;0.50;;;;;;;;;;5070636;28;20081;-67
2021/03/13 03:34:36;;;;;;;2.47;0.45;;;;;;;;;;5053947;28;20017;-66
2021/03/13 03:37:01;;;;;;;1.67;0.38;;;;;;;;;;5055597;28;20029;-66
2021/03/13 03:39:28;;;;;;;1.17;0.30;;;;;;;;;;5069459;28;20021;-65
2021/03/13 03:41:54;;;;;;;1.92;0.50;;;;;;;;;;5057470;28;20027;-66
2021/03/13 03:44:24;;;;;;;3.10;0.43;;;;;;;;;;5066346;28;20389;-66
2021/03/13 03:46:51;;;;;;;1.02;0.20;;;;;;;;;;5066122;28;20639;-66
2021/03/13 03:49:19;;;;;;;0.50;0.38;;;;;;;;;;5064578;28;20038;-66
2021/03/13 03:51:44;;;;;;;3.75;0.52;;;;;;;;;;5070007;28;20373;-66
2021/03/13 03:54:11;;;;;;;1.02;0.30;;;;;;;;;;5065160;28;20028;-66
2021/03/13 03:56:38;;;;;;;2.22;0.60;;;;;;;;;;5070707;28;20025;-67
2021/03/13 03:59:03;;;;;;;1.40;0.43;;;;;;;;;;5059638;28;20086;-65
2021/03/13 04:01:30;;;;;;;0.40;0.25;;;;;;;;;;5063938;28;20024;-65
2021/03/13 04:03:57;;;;;;;0.55;0.20;;;;;;;;;;5064156;28;20025;-65
2021/03/13 04:06:23;;;;;;;2.45;0.45;;;;;;;;;;5064539;28;20048;-65
2021/03/13 04:08:50;;;;;;;1.33;0.30;;;;;;;;;;5055746;28;20119;-65
2021/03/13 04:11:19;;;;;;;1.88;0.30;;;;;;;;;;5054626;28;20389;-65
2021/03/13 04:13:46;;;;;;;1.15;0.30;;;;;;;;;;5059786;28;20063;-65
2021/03/13 04:16:11;;;;;;;1.55;0.75;;;;;;;;;;5060514;28;20358;-65
2021/03/13 04:18:37;;;;;;;1.05;0.30;;;;;;;;;;5062289;28;20123;-65
2021/03/13 04:21:03;;;;;;;0.50;0.30;;;;;;;;;;5052202;28;20115;-66
2021/03/13 04:23:28;;;;;;;0.30;0.28;;;;;;;;;;5063755;28;20028;-65
2021/03/13 04:25:54;;;;;;;0.65;0.30;;;;;;;;;;5059506;28;20020;-66
2021/03/13 04:28:20;;;;;;;1.35;0.10;;;;;;;;;;5073301;23;20084;-66
2021/03/13 04:30:45;;;;;;;0.82;0.38;;;;;;;;;;5072061;28;20012;-66
2021/03/13 04:33:11;;;;;;;0.40;0.20;;;;;;;;;;5071553;28;20032;-66
2021/03/13 04:35:36;;;;;;;0.30;0.30;;;;;;;;;;5072204;28;20024;-66
2021/03/13 04:38:02;;;;;;;6.57;0.30;;;;;;;;;;5067597;28;20102;-66
2021/03/13 04:40:28;;;;;;;1.92;0.47;;;;;;;;;;5070635;28;20023;-66
2021/03/13 04:42:53;;;;;;;0.38;0.20;;;;;;;;;;5071879;28;20055;-66
2021/03/13 04:45:19;;;;;;;5.35;0.63;;;;;;;;;;5071791;28;20017;-66
2021/03/13 04:47:45;;;;;;;0.57;0.30;;;;;;;;;;5071220;28;20106;-66
2021/03/13 04:50:12;;;;;;;0.95;0.30;;;;;;;;;;5071856;28;20024;-66
2021/03/13 04:52:37;;;;;;;0.30;0.20;;;;;;;;;;5071376;28;20373;-66
2021/03/13 04:55:02;;;;;;;1.30;0.50;;;;;;;;;;5071626;28;20031;-66
2021/03/13 04:57:28;;;;;;;2.80;0.50;;;;;;;;;;5071660;28;20024;-66
2021/03/13 04:59:53;;;;;;;0.20;0.20;;;;;;;;;;5070036;28;20432;-66
2021/03/13 05:02:18;;;;;;;2.03;0.60;;;;;;;;;;5070987;28;20112;-66
2021/03/13 05:04:43;;;;;;;1.45;0.40;;;;;;;;;;5071630;28;20477;-67
2021/03/13 05:07:08;;;;;;;0.32;0.20;;;;;;;;;;5071106;28;20104;-66
2021/03/13 05:09:34;;;;;;;1.55;0.50;;;;;;;;;;5069500;28;20024;-67
2021/03/13 05:12:00;;;;;;;4.18;0.60;;;;;;;;;;5071561;28;20554;-67
2021/03/13 05:14:25;;;;;;;0.85;0.38;;;;;;;;;;5063860;28;20103;-66
2021/03/13 05:16:50;;;;;;;0.52;0.30;;;;;;;;;;5071444;28;20095;-66
2021/03/13 05:19:16;;;;;;;1.85;0.55;;;;;;;;;;5068127;28;20487;-66
2021/03/13 05:21:41;;;;;;;1.30;0.32;;;;;;;;;;5065146;28;20013;-66
2021/03/13 05:24:06;;;;;;;1.17;0.55;;;;;;;;;;5070904;28;20033;-66
2021/03/13 05:26:31;;;;;;;1.50;0.30;;;;;;;;;;5071276;28;20036;-66
2021/03/13 05:28:57;;;;;;;1.40;0.52;;;;;;;;;;5068798;28;20389;-66
2021/03/13 05:31:23;;;;;;;2.80;0.50;;;;;;;;;;5070475;28;20020;-66
2021/03/13 05:33:48;;;;;;;1.38;0.35;;;;;;;;;;5065782;28;20016;-66
2021/03/13 05:36:14;;;;;;;1.65;0.40;;;;;;;;;;5070687;28;20441;-67
2021/03/13 05:38:39;;;;;;;0.40;0.20;;;;;;;;;;5071200;28;20020;-66
2021/03/13 05:41:04;;;;;;;0.75;0.50;;;;;;;;;;5071279;28;20035;-68
2021/03/13 05:43:30;;;;;;;0.38;0.28;;;;;;;;;;5071151;28;20025;-66
2021/03/13 05:45:55;;;;;;;1.60;0.60;;;;;;;;;;5071173;28;20017;-65
2021/03/13 05:48:21;;;;;;;2.35;0.55;;;;;;;;;;5070096;28;20104;-69
2021/03/13 05:50:47;;;;;;;0.63;0.38;;;;;;;;;;5070896;28;20622;-66
2021/03/13 05:53:12;;;;;;;2.25;0.65;;;;;;;;;;5070671;28;20047;-66
2021/03/13 05:55:38;;;;;;;1.23;0.32;;;;;;;;;;5070611;28;20016;-67
2021/03/13 05:58:06;;;;;;;2.00;1.23;;;;;;;;;;5069826;28;20024;-66
2021/03/13 06:00:31;;;;;;;0.57;0.25;;;;;;;;;;5070549;28;20021;-66
2021/03/13 06:02:57;;;;;;;3.10;0.30;;;;;;;;;;5068151;28;20024;-66
2021/03/13 06:05:23;;;;;;;2.03;0.75;;;;;;;;;;5067834;28;20040;-66
2021/03/13 06:07:48;;;;;;;1.08;0.57;;;;;;;;;;5064950;28;20493;-67
2021/03/13 06:10:14;;;;;;;3.28;0.45;;;;;;;;;;5068488;28;20020;-66
2021/03/13 06:12:39;;;;;;;1.60;0.40;;;;;;;;;;5068094;28;20493;-65
2021/03/13 06:15:04;;;;;;;3.20;0.55;;;;;;;;;;5066562;28;20025;-66
2021/03/13 06:17:50;;;;;;;1.65;0.73;;;;;;;;;;5067390;28;20473;-65
2021/03/13 06:20:19;;;;;;;1.85;0.65;;;;;;;;;;5056165;28;20025;-67
2021/03/13 06:22:44;;;;;;;1.90;0.52;;;;;;;;;;5069329;28;20025;-67
2021/03/13 06:25:12;;;;;;;1.15;0.65;;;;;;;;;;5065197;28;20047;-66
2021/03/13 06:27:38;;;;;;;1.65;0.50;;;;;;;;;;5067629;28;20053;-66
2021/03/13 06:30:04;;;;;;;0.40;0.30;;;;;;;;;;5068004;28;20055;-66
2021/03/13 06:32:33;;;;;;;3.50;0.63;;;;;;;;;;5062604;28;20021;-66
2021/03/13 06:35:28;;;;;;;1.77;0.60;;;;;;;;;;5066962;28;20028;-66
2021/03/13 06:37:55;;;;;;;2.67;0.60;;;;;;;;;;5049322;28;20130;-66
2021/03/13 06:40:26;;;;;;;3.63;0.68;;;;;;;;;;5069856;28;20067;-66
2021/03/13 06:42:51;;;;;;;2.78;0.50;;;;;;;;;;5066289;28;20021;-66
2021/03/13 06:45:19;;;;;;;2.08;0.63;;;;;;;;;;5068943;28;20108;-66
2021/03/13 06:47:44;;;;;;;4.18;0.85;;;;;;;;;;5069310;28;20032;-66
2021/03/13 06:50:10;;;;;;;7.60;0.63;;;;;;;;;;5070069;28;20050;-66
2021/03/13 06:52:35;;;;;;;2.60;0.35;;;;;;;;;;5070071;28;20103;-66
2021/03/13 06:55:00;;;;;;;1.75;0.57;;;;;;;;;;5058979;28;20500;-65
2021/03/13 06:57:26;;;;;;;2.33;0.50;;;;;;;;;;5066732;28;20418;-66
2021/03/13 06:59:51;;;;;;;1.15;0.45;;;;;;;;;;5066877;28;20104;-65
2021/03/13 07:02:20;;;;;;;3.13;0.63;;;;;;;;;;5064752;28;20097;-66
2021/03/13 07:04:45;;;;;;;8.80;0.80;;;;;;;;;;5061559;28;20050;-65
2021/03/13 07:07:12;;;;;;;2.08;0.40;;;;;;;;;;5067919;28;20052;-65
2021/03/13 07:09:43;;;;;;;2.08;0.60;;;;;;;;;;5064600;28;20079;-66
2021/03/13 07:12:21;;;;;;;1.67;0.43;;;;;;;;;;5068882;28;20032;-66
2021/03/13 07:14:46;;;;;;;0.55;0.10;;;;;;;;;;5063808;28;20074;-66
2021/03/13 07:17:14;;;;;;;1.25;0.30;;;;;;;;;;5069376;28;20025;-66
2021/03/13 07:19:39;;;;;;;0.65;0.20;;;;;;;;;;5069497;28;20013;-66
2021/03/13 07:22:05;;;;;;;2.25;0.30;;;;;;;;;;5069467;28;20017;-66
2021/03/13 07:24:30;;;;;;;2.38;0.40;;;;;;;;;;5062899;28;20032;-65
2021/03/13 07:26:57;;;;;;;0.20;0.20;;;;;;;;;;5072971;28;20027;-65
2021/03/13 07:29:23;;;;;;;2.17;0.30;;;;;;;;;;5071236;28;20056;-66
2021/03/13 07:32:02;;;;;;;1.45;0.70;;;;;;;;;;5073363;28;20542;-65
2021/03/13 07:34:31;;;;;;;6.25;0.50;;;;;;;;;;5072796;28;20028;-65
2021/03/13 07:36:57;;;;;;;0.80;0.50;;;;;;;;;;5072359;28;20020;-65
2021/03/13 07:39:23;;;;;;;0.80;0.30;;;;;;;;;;5072871;28;20029;-65
2021/03/13 07:42:05;;;;;;;0.85;0.30;;;;;;;;;;5070491;28;20177;-66
2021/03/13 07:44:30;;;;;;;1.83;0.30;;;;;;;;;;5061474;28;20042;-66
2021/03/13 07:46:56;;;;;;;0.25;0.10;;;;;;;;;;5072491;28;20017;-66
2021/03/13 07:49:22;;;;;;;2.75;0.20;;;;;;;;;;5065699;28;20025;-66
2021/03/13 07:51:47;;;;;;;0.82;0.20;;;;;;;;;;5068300;28;20016;-66
2021/03/13 07:54:13;;;;;;;2.20;0.95;;;;;;;;;;5071400;28;20384;-66
2021/03/13 07:56:39;;;;;;;5.05;0.88;;;;;;;;;;5065768;28;20028;-66
2021/03/13 07:59:08;;;;;;;10.93;1.70;;;;;;;;;;5067522;28;20081;-65
2021/03/13 08:01:49;;;;;;;3.38;1.42;;;;;;;;;;5069398;28;20508;-66
2021/03/13 08:04:33;;;;;;;6.03;1.27;;;;;;;;;;5069236;28;20059;-66
2021/03/13 08:06:58;;;;;;;1.05;0.47;;;;;;;;;;5070379;28;20074;-66
2021/03/13 08:09:26;;;;;;;3.35;0.60;;;;;;;;;;5069284;28;20020;-66
2021/03/13 08:11:51;;;;;;;3.30;1.05;;;;;;;;;;5064675;28;20027;-66
2021/03/13 08:14:30;;;;;;;4.28;0.50;;;;;;;;;;5056422;28;20033;-66
2021/03/13 08:17:05;;;;;;;5.45;0.60;;;;;;;;;;5066413;28;20073;-66
2021/03/13 08:19:34;;;;;;;2.35;0.60;;;;;;;;;;5067610;28;20024;-66
2021/03/13 08:22:12;;;;;;;1.08;0.38;;;;;;;;;;5069494;28;20392;-65
2021/03/13 08:24:51;;;;;;;3.63;0.70;;;;;;;;;;5070117;28;20063;-65
2021/03/13 08:27:17;;;;;;;3.72;0.50;;;;;;;;;;5071270;28;20020;-68
2021/03/13 08:29:47;;;;;;;8.95;0.80;;;;;;;;;;5071626;28;20016;-65
2021/03/13 08:32:12;;;;;;;6.72;0.60;;;;;;;;;;5071897;28;20098;-68
2021/03/13 08:34:37;;;;;;;0.95;0.30;;;;;;;;;;5061938;28;20076;-65
2021/03/13 08:37:16;;;;;;;0.37;0.20;;;;;;;;;;5071748;28;20104;-66
2021/03/13 08:39:41;;;;;;;3.97;1.10;;;;;;;;;;5063842;28;20316;-65
2021/03/13 08:42:06;;;;;;;1.98;0.60;;;;;;;;;;5070357;28;20414;-67
2021/03/13 08:44:32;;;;;;;0.47;0.30;;;;;;;;;;5071306;28;20085;-65
2021/03/13 08:47:03;;;;;;;1.30;0.43;;;;;;;;;;5070521;28;20578;-66
2021/03/13 08:49:28;;;;;;;2.83;1.25;;;;;;;;;;5071184;28;20013;-65
2021/03/13 08:52:02;;;;;;;3.70;0.80;;;;;;;;;;5069578;28;20085;-68
2021/03/13 08:54:49;;;;;;;3.53;0.80;;;;;;;;;;5063031;28;20024;-65
2021/03/13 08:57:15;;;;;;;1.50;0.50;;;;;;;;;;5065902;28;20029;-67
2021/03/13 08:59:41;;;;;;;1.52;0.68;;;;;;;;;;5070293;28;20581;-66
2021/03/13 09:02:11;;;;;;;3.20;1.00;;;;;;;;;;5071711;28;20024;-65
2021/03/13 09:04:37;;;;;;;5.07;0.65;;;;;;;;;;5071742;28;20587;-67
2021/03/13 09:07:03;;;;;;;2.28;0.47;;;;;;;;;;5071472;28;20099;-66
2021/03/13 09:09:30;;;;;;;2.47;0.63;;;;;;;;;;5070929;28;20012;-65
2021/03/13 09:11:56;;;;;;;4.35;0.60;;;;;;;;;;5070699;28;20538;-65
2021/03/13 09:14:22;;;;;;;4.22;0.68;;;;;;;;;;5070999;28;20061;-65
2021/03/13 09:16:47;;;;;;;1.02;0.28;;;;;;;;;;5070738;28;20020;-66
2021/03/13 09:19:13;;;;;;;2.60;0.57;;;;;;;;;;5069811;28;20067;-65
2021/03/13 09:21:46;;;;;;;7.88;1.13;;;;;;;;;;5071152;28;20485;-65
2021/03/13 09:24:13;;;;;;;4.43;0.52;;;;;;;;;;5071547;28;20024;-64
2021/03/13 09:26:38;;;;;;;10.02;0.98;;;;;;;;;;5069980;28;20021;-66
2021/03/13 09:29:04;;;;;;;2.33;1.10;;;;;;;;;;5069694;28;20630;-64
2021/03/13 09:31:29;;;;;;;4.85;0.88;;;;;;;;;;5070110;28;20027;-65
2021/03/13 09:34:11;;;;;;;2.60;0.87;;;;;;;;;;5070531;28;20042;-64
2021/03/13 09:36:36;;;;;;;5.88;1.20;;;;;;;;;;5060296;28;20271;-65
2021/03/13 09:39:01;;;;;;;4.13;2.25;;;;;;;;;;5069752;28;20511;-66
2021/03/13 09:41:26;;;;;;;5.90;1.20;;;;;;;;;;5070072;28;20078;-65
2021/03/13 09:43:51;;;;;;;9.13;1.30;;;;;;;;;;5069436;28;20025;-65
2021/03/13 09:46:17;;;;;;;9.77;1.20;;;;;;;;;;5067991;28;20758;-65
2021/03/13 09:48:42;;;;;;;11.65;1.27;;;;;;;;;;5068235;28;20259;-65
2021/03/13 09:51:08;;;;;;;5.28;1.42;;;;;;;;;;5068013;28;20020;-65
2021/03/13 09:53:33;;;;;;;8.75;1.23;;;;;;;;;;5067640;28;20038;-65
2021/03/13 09:55:58;;;;;;;5.25;1.33;;;;;;;;;;5067444;28;20048;-65
2021/03/13 09:58:24;;;;;;;13.30;1.77;;;;;;;;;;5067769;28;20020;-65
2021/03/13 10:00:49;;;;;;;8.45;0.77;;;;;;;;;;5068444;28;20266;-65
2021/03/13 10:03:15;;;;;;;11.45;1.83;;;;;;;;;;5051269;28;20085;-65
2021/03/13 10:05:41;;;;;;;10.15;2.55;;;;;;;;;;5059040;28;20472;-65
2021/03/13 10:08:13;;;;;;;6.53;1.50;;;;;;;;;;5063781;28;20074;-64
2021/03/13 10:10:39;;;;;;;8.43;1.10;;;;;;;;;;5067106;28;20025;-64
2021/03/13 10:13:05;;;;;;;5.72;1.00;;;;;;;;;;5057519;28;20104;-65
2021/03/13 10:15:31;;;;;;;4.93;1.40;;;;;;;;;;5063106;28;20564;-65
2021/03/13 10:17:58;;;;;;;4.15;0.75;;;;;;;;;;5067806;28;20025;-64
2021/03/13 10:20:25;;;;;;;4.35;1.25;;;;;;;;;;5063711;28;20028;-65
2021/03/13 10:22:51;;;;;;;8.48;1.83;;;;;;;;;;5067605;28;20606;-65
2021/03/13 10:25:16;;;;;;;13.07;1.88;;;;;;;;;;5061442;28;20024;-64
2021/03/13 10:27:42;;;;;;;4.22;1.55;;;;;;;;;;5060573;28;20516;-64
2021/03/13 10:30:08;;;;;;;7.60;1.95;;;;;;;;;;5067646;28;20538;-64
2021/03/13 10:32:35;;;;;;;11.57;2.70;;;;;;;;;;5068628;28;20028;-65
2021/03/13 10:35:20;;;;;;;19.50;1.58;;;;;;;;;;5069093;28;20024;-65
2021/03/13 10:37:47;;;;;;;6.97;1.08;;;;;;;;;;5068994;28;20024;-65
2021/03/13 10:40:28;;;;;;;7.78;1.45;;;;;;;;;;5068639;28;20021;-65
2021/03/13 10:43:08;;;;;;;9.93;1.60;;;;;;;;;;5064385;28;20021;-65
2021/03/13 10:45:34;;;;;;;16.30;2.17;;;;;;;;;;5067292;28;20099;-64
2021/03/13 10:48:03;;;;;;;6.35;1.20;;;;;;;;;;5070416;28;20092;-66
2021/03/13 10:50:29;;;;;;;4.60;1.35;;;;;;;;;;5068629;28;20017;-66
2021/03/13 10:52:54;;;;;;;7.60;1.33;;;;;;;;;;5070073;28;20024;-64
2021/03/13 10:55:36;;;;;;;18.23;2.90;;;;;;;;;;5070817;28;20157;-66
2021/03/13 10:58:02;;;;;;;12.13;1.30;;;;;;;;;;5070708;28;20259;-67
2021/03/13 11:00:27;;;;;;;14.00;1.85;;;;;;;;;;5067122;28;20107;-65
2021/03/13 11:02:52;;;;;;;9.07;1.27;;;;;;;;;;5067598;28;20150;-64
2021/03/13 11:05:18;;;;;;;6.93;1.57;;;;;;;;;;5072073;28;20376;-65
2021/03/13 11:07:43;;;;;;;5.22;1.63;;;;;;;;;;5071679;28;20279;-65
2021/03/13 11:10:08;;;;;;;4.40;1.33;;;;;;;;;;5072776;28;20023;-65
2021/03/13 11:12:34;;;;;;;9.15;1.85;;;;;;;;;;5075301;28;20281;-65
2021/03/13 11:14:59;;;;;;;7.55;2.35;;;;;;;;;;5072721;28;20490;-65
2021/03/13 11:17:24;;;;;;;7.95;1.67;;;;;;;;;;5073420;28;20103;-66
2021/03/13 11:19:49;;;;;;;8.47;1.40;;;;;;;;;;5072935;28;20027;-65
2021/03/13 11:22:14;;;;;;;5.57;1.60;;;;;;;;;;5073327;28;20739;-65
2021/03/13 11:24:39;;;;;;;7.68;1.50;;;;;;;;;;5073182;28;20346;-65
2021/03/13 11:27:05;;;;;;;9.38;2.00;;;;;;;;;;5073213;28;20036;-65
2021/03/13 11:29:30;;;;;;;8.68;1.35;;;;;;;;;;5069079;28;20028;-65
2021/03/13 11:31:55;;;;;;;7.82;1.77;;;;;;;;;;5073273;28;20077;-64
2021/03/13 11:34:20;;;;;;;11.70;1.50;;;;;;;;;;5072968;28;20043;-65
2021/03/13 11:36:46;;;;;;;8.02;1.08;;;;;;;;;;5066891;28;20266;-64
2021/03/13 11:39:11;;;;;;;7.53;1.48;;;;;;;;;;5073034;28;20552;-64
2021/03/13 11:41:39;;;;;;;17.60;2.75;;;;;;;;;;5072679;28;20508;-64
2021/03/13 11:44:04;;;;;;;12.07;2.60;;;;;;;;;;5071925;28;20024;-64
2021/03/13 11:46:30;;;;;;;10.15;2.00;;;;;;;;;;5070078;28;20485;-64
2021/03/13 11:48:55;;;;;;;11.40;2.15;;;;;;;;;;5069585;28;20013;-64
2021/03/13 11:51:20;;;;;;;19.55;3.20;;;;;;;;;;5071801;28;20020;-64
2021/03/13 11:53:45;;;;;;;21.48;2.70;;;;;;;;;;5073107;28;20008;-65
2021/03/13 11:56:10;;;;;;;16.60;2.33;;;;;;;;;;5073048;28;20255;-65
2021/03/13 11:58:36;;;;;;;8.83;2.03;;;;;;;;;;5072496;28;20207;-65
2021/03/13 12:01:01;;;;;;;28.77;4.28;;;;;;;;;;5071241;28;20271;-64
2021/03/13 12:03:27;;;;;;;13.80;3.20;;;;;;;;;;5072780;28;20024;-65
2021/03/13 12:05:52;;;;;;;23.80;3.00;;;;;;;;;;5072615;28;20309;-65
2021/03/13 12:08:17;;;;;;;7.73;1.63;;;;;;;;;;5072210;28;20274;-65
2021/03/13 12:10:42;;;;;;;7.28;1.08;;;;;;;;;;5072589;28;20257;-65
2021/03/13 12:13:08;;;;;;;9.95;1.77;;;;;;;;;;5072640;28;20516;-65
2021/03/13 12:15:33;;;;;;;10.25;2.20;;;;;;;;;;5071865;28;20016;-65
2021/03/13 12:17:58;;;;;;;10.63;2.10;;;;;;;;;;5071856;28;20401;-65
2021/03/13 12:20:23;;;;;;;4.70;1.15;;;;;;;;;;5072972;28;20254;-65
2021/03/13 12:22:49;;;;;;;6.78;1.13;;;;;;;;;;5075041;28;20114;-65
2021/03/13 12:25:14;;;;;;;17.40;1.30;;;;;;;;;;5092611;28;20115;-65
2021/03/13 12:27:40;;;;;;;13.15;1.80;;;;;;;;;;5089633;28;20020;-65
2021/03/13 12:30:09;;;;;;;14.38;1.73;;;;;;;;;;5069553;28;20410;-65
2021/03/13 12:32:34;;;;;;;8.68;2.60;;;;;;;;;;5068942;28;20024;-66
2021/03/13 12:35:00;;;;;;;14.57;2.60;;;;;;;;;;5072088;28;20025;-65
2021/03/13 12:37:26;;;;;;;19.65;2.08;;;;;;;;;;5068525;28;20098;-65
2021/03/13 12:39:51;;;;;;;11.77;2.63;;;;;;;;;;5070830;28;20027;-66
2021/03/13 12:42:16;;;;;;;13.73;2.50;;;;;;;;;;5073296;28;20024;-66
2021/03/13 12:44:41;;;;;;;13.90;2.40;;;;;;;;;;5071079;28;20278;-66
2021/03/13 12:47:06;;;;;;;12.43;2.20;;;;;;;;;;5068579;28;20601;-65
2021/03/13 12:49:32;;;;;;;13.13;2.05;;;;;;;;;;5070348;28;20758;-66
2021/03/13 12:51:57;;;;;;;28.80;3.20;;;;;;;;;;5071497;28;20059;-65
2021/03/13 12:54:22;;;;;;;32.93;5.47;;;;;;;;;;5071875;28;20064;-65
2021/03/13 12:56:47;;;;;;;25.70;4.82;;;;;;;;;;5071091;28;20267;-64
2021/03/13 12:59:12;;;;;;;19.02;3.13;;;;;;;;;;5070597;28;20036;-66
2021/03/13 13:01:38;;;;;;;9.90;2.38;;;;;;;;;;5071849;28;20062;-67
2021/03/13 13:04:03;;;;;;;16.98;2.95;;;;;;;;;;5071065;28;20074;-67
2021/03/13 13:06:29;;;;;;;5.07;1.20;;;;;;;;;;5071668;28;20008;-67
2021/03/13 13:08:55;;;;;;;13.00;2.70;;;;;;;;;;5071090;28;20016;-67
2021/03/13 13:11:21;;;;;;;17.65;3.05;;;;;;;;;;5070985;28;20508;-67
2021/03/13 13:13:46;;;;;;;22.83;3.65;;;;;;;;;;5069736;28;20020;-67
2021/03/13 13:16:11;;;;;;;13.68;2.25;;;;;;;;;;5071203;28;20020;-67
2021/03/13 13:18:36;;;;;;;14.55;2.58;;;;;;;;;;5070337;28;20070;-67
2021/03/13 13:21:02;;;;;;;21.27;4.70;;;;;;;;;;5069301;28;20016;-67
2021/03/13 13:23:27;;;;;;;25.05;5.40;;;;;;;;;;5070719;28;20062;-67
2021/03/13 13:25:52;;;;;;;13.95;2.00;;;;;;;;;;5071074;28;20021;-67
2021/03/13 13:28:17;;;;;;;18.17;2.88;;;;;;;;;;5069295;28;20068;-66
2021/03/13 13:30:42;;;;;;;4.88;1.45;;;;;;;;;;5070613;28;20369;-67
2021/03/13 13:33:11;;;;;;;7.05;1.83;;;;;;;;;;5069600;28;20397;-66
2021/03/13 13:35:36;;;;;;;12.02;2.85;;;;;;;;;;5070083;28;20021;-66
2021/03/13 13:38:02;;;;;;;13.27;2.75;;;;;;;;;;5070539;28;20024;-66
2021/03/13 13:40:27;;;;;;;11.20;1.88;;;;;;;;;;5069470;28;20024;-66
2021/03/13 13:42:52;;;;;;;7.53;1.73;;;;;;;;;;5070537;28;20078;-66
2021/03/13 13:45:18;;;;;;;14.32;1.92;;;;;;;;;;5070116;28;20016;-66
2021/03/13 13:47:44;;;;;;;12.88;2.65;;;;;;;;;;5065025;28;20036;-64
2021/03/13 13:50:11;;;;;;;9.20;1.80;;;;;;;;;;5070690;28;20021;-66
2021/03/13 13:52:39;;;;;;;7.65;1.73;;;;;;;;;;5071999;28;20220;-65
2021/03/13 13:55:06;;;;;;;11.75;2.20;;;;;;;;;;5063226;28;20025;-65
2021/03/13 13:57:31;;;;;;;8.88;2.40;;;;;;;;;;5071322;28;20443;-66
2021/03/13 13:59:57;;;;;;;5.35;1.58;;;;;;;;;;5071370;28;20128;-64
2021/03/13 14:02:22;;;;;;;24.05;2.85;;;;;;;;;;5071588;28;20027;-67
2021/03/13 14:04:47;;;;;;;13.85;2.15;;;;;;;;;;5064010;28;20469;-64
2021/03/13 14:07:12;;;;;;;10.35;2.15;;;;;;;;;;5071904;28;20012;-64
2021/03/13 14:09:37;;;;;;;9.30;1.05;;;;;;;;;;5070789;28;20020;-65
2021/03/13 14:12:03;;;;;;;13.90;2.00;;;;;;;;;;5068851;28;20035;-65
2021/03/13 14:14:28;;;;;;;11.95;1.90;;;;;;;;;;5070001;28;20669;-65
2021/03/13 14:16:54;;;;;;;17.58;2.45;;;;;;;;;;5069674;28;20792;-65
2021/03/13 14:19:19;;;;;;;17.50;1.70;;;;;;;;;;5070012;28;20381;-65
2021/03/13 14:21:44;;;;;;;15.02;1.80;;;;;;;;;;5069363;28;20024;-64
2021/03/13 14:24:09;;;;;;;5.32;1.88;;;;;;;;;;5070494;28;20024;-65
2021/03/13 14:26:35;;;;;;;7.65;1.73;;;;;;;;;;5069699;28;20394;-65
2021/03/13 14:29:00;;;;;;;10.38;1.42;;;;;;;;;;5068894;28;20408;-64
2021/03/13 14:31:25;;;;;;;12.37;2.20;;;;;;;;;;5069500;28;20392;-65
2021/03/13 14:33:51;;;;;;;7.20;1.33;;;;;;;;;;5060080;28;20282;-64
2021/03/13 14:36:16;;;;;;;18.98;4.15;;;;;;;;;;5069286;28;20456;-66
2021/03/13 14:38:41;;;;;;;13.50;2.47;;;;;;;;;;5069258;28;20016;-66